Time;durP1;ratioP1;P1;durP2;ratioP2;P2;SDS_P1;SDS_P2;PMS_P1;PMS_P2;Temp;Humidity;BMP_temperature;BMP_pressure;BME280_temperature;BME280_humidity;BME280_pressure;Samples;Min_cycle;Max_cycle;Signal;HPM_P1;HPM_P2
2023/01/10 00:00:30;;;;;;;5.68;1.35;;;;;;;3.18;57.69;100731.50;5060308;28;20076;-65
2023/01/10 00:02:56;;;;;;;8.32;1.90;;;;;;;2.39;60.22;100743.47;5064757;28;20054;-65
2023/01/10 00:05:21;;;;;;;4.85;0.90;;;;;;;2.93;59.02;100742.97;5065610;28;20033;-71
2023/01/10 00:07:47;;;;;;;4.95;1.95;;;;;;;2.71;59.05;100750.94;5062467;28;20467;-71
2023/01/10 00:10:13;;;;;;;10.50;1.17;;;;;;;2.75;59.39;100749.16;5062520;28;20195;-72
2023/01/10 00:15:25;;;;;;;3.58;1.05;;;;;;;2.42;60.63;100765.78;5064764;28;20047;-72
2023/01/10 00:17:50;;;;;;;8.95;1.10;;;;;;;3.02;59.20;100767.84;5086417;28;20040;-72
2023/01/10 00:20:16;;;;;;;5.68;1.50;;;;;;;2.72;59.54;100768.13;5067253;28;20097;-73
2023/01/10 00:22:41;;;;;;;13.13;1.48;;;;;;;3.08;58.96;100781.53;5059651;28;20040;-68
2023/01/10 00:25:07;;;;;;;9.82;1.23;;;;;;;2.69;60.40;100786.22;5049496;28;20107;-65
2023/01/10 00:27:35;;;;;;;9.43;0.88;;;;;;;3.13;58.87;100786.66;5070367;28;20040;-66
2023/01/10 00:30:13;;;;;;;6.10;0.95;;;;;;;3.37;57.67;100790.75;5060877;28;20038;-67
2023/01/10 00:32:45;;;;;;;7.90;1.40;;;;;;;3.37;58.25;100801.06;5059703;28;20874;-67
2023/01/10 00:35:11;;;;;;;13.05;1.52;;;;;;;3.44;57.56;100801.88;5068983;28;20697;-68
2023/01/10 00:37:38;;;;;;;13.27;2.70;;;;;;;3.21;58.40;100799.50;5064744;28;20504;-67
2023/01/10 00:40:08;;;;;;;10.75;2.15;;;;;;;3.45;57.33;100804.44;5061871;28;20220;-67
2023/01/10 00:45:21;;;;;;;5.82;1.38;;;;;;;3.09;58.63;100814.25;5065504;28;20046;-68
2023/01/10 00:47:49;;;;;;;8.82;1.98;;;;;;;3.10;58.93;100821.13;5064746;28;20040;-66
2023/01/10 00:50:16;;;;;;;5.38;1.23;;;;;;;3.40;57.91;100824.28;5064250;28;20489;-66
2023/01/10 00:52:41;;;;;;;8.32;0.73;;;;;;;3.32;57.98;100841.63;5065915;28;20773;-67
2023/01/10 00:55:07;;;;;;;6.82;1.33;;;;;;;3.12;58.73;100844.38;5077183;27;20171;-67
2023/01/10 00:57:32;;;;;;;7.72;0.70;;;;;;;3.42;58.14;100839.78;5064910;28;20176;-66
2023/01/10 01:00:00;;;;;;;3.75;0.60;;;;;;;2.88;59.94;100854.03;5062530;28;20252;-67
2023/01/10 01:02:26;;;;;;;3.17;0.50;;;;;;;3.04;59.64;100856.47;5067753;28;20094;-65
2023/01/10 01:04:51;;;;;;;5.78;0.77;;;;;;;3.48;58.31;100856.06;5061298;28;20417;-68
2023/01/10 01:07:17;;;;;;;10.05;0.50;;;;;;;3.74;57.38;100865.28;5065442;28;20056;-67
2023/01/10 01:12:26;;;;;;;5.10;0.70;;;;;;;3.79;56.93;100866.06;5063149;28;20325;-67
2023/01/10 01:14:52;;;;;;;5.43;0.90;;;;;;;3.44;57.41;100864.72;5059974;28;20036;-67
2023/01/10 01:17:19;;;;;;;5.53;1.13;;;;;;;3.66;56.91;100873.09;5062770;28;20052;-67
2023/01/10 01:19:45;;;;;;;4.55;0.63;;;;;;;3.53;56.87;100880.13;5067836;28;20043;-67
2023/01/10 01:22:13;;;;;;;10.27;0.55;;;;;;;3.51;56.41;100887.03;5071667;28;20054;-66
2023/01/10 01:24:40;;;;;;;9.18;0.77;;;;;;;3.45;56.24;100896.59;5062232;28;20075;-70
2023/01/10 01:27:06;;;;;;;9.77;1.05;;;;;;;3.36;56.74;100897.56;5059540;28;20028;-74
2023/01/10 01:29:34;;;;;;;10.63;0.80;;;;;;;3.12;57.87;100903.75;5066436;28;20028;-70
2023/01/10 01:31:59;;;;;;;3.72;0.50;;;;;;;3.21;57.53;100908.84;5060557;28;20036;-70
2023/01/10 01:34:24;;;;;;;8.80;1.02;;;;;;;3.17;57.11;100920.06;5065456;28;20119;-72
2023/01/10 01:36:50;;;;;;;3.10;0.50;;;;;;;2.87;58.22;100921.19;5033040;28;20036;-66
2023/01/10 01:39:16;;;;;;;8.40;0.68;;;;;;;2.76;58.57;100927.25;5044564;28;20029;-67
2023/01/10 01:41:57;;;;;;;7.80;0.63;;;;;;;2.91;57.99;100930.59;5062875;28;20489;-67
2023/01/10 01:44:27;;;;;;;7.85;0.80;;;;;;;2.82;58.18;100935.81;5060122;28;20041;-67
2023/01/10 01:47:12;;;;;;;12.90;0.85;;;;;;;2.74;58.41;100946.22;5060077;28;20028;-67
2023/01/10 01:49:41;;;;;;;9.48;1.48;;;;;;;2.83;58.04;100946.16;5063780;28;20211;-68
2023/01/10 01:52:24;;;;;;;10.25;0.85;;;;;;;2.43;59.90;100950.69;5066106;27;21088;-67
2023/01/10 01:54:53;;;;;;;6.65;0.73;;;;;;;2.82;58.17;100956.47;5075352;27;20432;-65
2023/01/10 01:57:23;;;;;;;2.65;0.60;;;;;;;2.84;58.18;100965.06;5055606;28;20695;-63
2023/01/10 01:59:52;;;;;;;5.45;0.73;;;;;;;2.78;58.78;100955.66;5061900;28;20475;-64
2023/01/10 02:02:23;;;;;;;10.32;0.80;;;;;;;2.92;58.51;100959.00;5061028;28;20043;-65
2023/01/10 02:04:55;;;;;;;8.40;0.68;;;;;;;2.96;58.28;100967.59;5066244;28;20039;-65
2023/01/10 02:07:23;;;;;;;4.18;0.45;;;;;;;3.05;58.70;100970.09;5062049;28;20385;-65
2023/01/10 02:09:56;;;;;;;19.15;0.85;;;;;;;3.04;58.47;100973.53;5063624;28;20033;-65
2023/01/10 02:12:23;;;;;;;11.30;0.93;;;;;;;3.28;58.12;100976.81;5061938;28;20638;-65
2023/01/10 02:14:52;;;;;;;9.90;0.60;;;;;;;3.22;57.70;100984.59;5060127;28;20032;-64
2023/01/10 02:17:18;;;;;;;7.20;1.00;;;;;;;3.03;58.85;100982.16;5079408;28;20060;-65
2023/01/10 02:20:01;;;;;;;5.35;1.25;;;;;;;3.14;58.82;100985.53;5065625;28;20069;-65
2023/01/10 02:23:00;;;;;;;9.02;0.65;;;;;;;3.01;59.26;100983.91;5065527;28;20141;-65
2023/01/10 02:25:40;;;;;;;5.40;0.73;;;;;;;3.07;58.87;100989.03;5061789;28;20033;-65
2023/01/10 02:28:44;;;;;;;10.00;0.85;;;;;;;2.77;60.01;100980.59;5067116;28;20043;-63
2023/01/10 02:31:29;;;;;;;14.38;1.00;;;;;;;3.15;58.20;100984.63;5062154;28;21675;-67
2023/01/10 02:34:19;;;;;;;12.23;1.33;;;;;;;2.99;58.50;100990.78;5056779;28;20040;-66
2023/01/10 02:37:24;;;;;;;8.32;0.45;;;;;;;3.03;57.78;100992.50;5059487;28;20036;-66
2023/01/10 02:40:18;;;;;;;15.43;1.10;;;;;;;2.88;58.03;100992.59;4995064;28;20047;-66
2023/01/10 02:42:51;;;;;;;11.63;1.38;;;;;;;2.73;58.73;100984.06;5062019;27;20047;-68
2023/01/10 02:45:23;;;;;;;8.02;1.58;;;;;;;2.48;59.26;100990.22;5057500;28;20089;-68
2023/01/10 02:47:49;;;;;;;10.02;1.10;;;;;;;2.79;58.72;100992.66;5058816;28;20098;-67
2023/01/10 02:50:40;;;;;;;9.18;0.90;;;;;;;2.76;58.27;100993.53;5062023;28;20032;-67
2023/01/10 02:53:15;;;;;;;6.18;0.43;;;;;;;2.69;58.01;101000.44;5054237;28;20044;-67
2023/01/10 02:55:58;;;;;;;10.43;0.88;;;;;;;2.50;58.48;101009.13;5061679;28;20637;-67
2023/01/10 02:58:41;;;;;;;8.38;0.82;;;;;;;2.03;60.34;101007.56;5063896;28;20044;-66
2023/01/10 03:01:21;;;;;;;8.10;0.70;;;;;;;2.31;59.23;101011.78;5062301;28;20472;-64
2023/01/10 03:03:47;;;;;;;11.30;1.38;;;;;;;1.97;60.29;101010.16;5058576;27;20298;-63
2023/01/10 03:06:34;;;;;;;6.78;1.00;;;;;;;2.32;58.67;101010.06;5049375;28;20038;-64
2023/01/10 03:09:25;;;;;;;17.38;1.45;;;;;;;2.00;59.42;101015.28;5064412;28;20547;-64
2023/01/10 03:12:00;;;;;;;12.48;1.13;;;;;;;2.39;57.58;101018.63;5075313;27;20232;-64
2023/01/10 03:14:28;;;;;;;9.40;2.03;;;;;;;2.34;57.50;101016.91;5061369;28;20601;-64
2023/01/10 03:17:01;;;;;;;8.55;0.60;;;;;;;2.22;58.31;101026.41;5058359;28;20095;-65
2023/01/10 03:19:32;;;;;;;12.80;0.85;;;;;;;2.19;57.78;101032.44;5062503;28;20066;-65
2023/01/10 03:22:01;;;;;;;8.82;0.70;;;;;;;2.14;57.54;101040.19;5056983;28;20052;-66
2023/01/10 03:24:32;;;;;;;10.52;1.13;;;;;;;2.00;57.89;101038.50;5060326;28;20038;-67
2023/01/10 03:27:13;;;;;;;6.55;0.57;;;;;;;2.04;57.55;101040.19;5058960;28;20038;-67
2023/01/10 03:29:55;;;;;;;13.60;2.08;;;;;;;2.06;57.27;101049.66;5064032;28;20114;-69
2023/01/10 03:32:25;;;;;;;6.75;1.50;;;;;;;1.98;56.96;101053.97;5061141;28;20044;-68
2023/01/10 03:34:52;;;;;;;9.50;0.90;;;;;;;1.95;57.08;101064.28;5060078;28;20386;-68
2023/01/10 03:37:49;;;;;;;2.92;1.00;;;;;;;1.91;57.18;101062.59;5059604;28;20051;-67
2023/01/10 03:40:32;;;;;;;3.83;0.73;;;;;;;1.89;56.58;101075.47;5062330;28;20047;-66
2023/01/10 03:47:05;;;;;;;8.77;1.75;;;;;;;1.70;57.00;101081.47;5061608;28;20624;-66
2023/01/10 03:49:39;;;;;;;5.47;0.55;;;;;;;1.75;56.76;101086.63;5045215;28;20642;-67
2023/01/10 03:52:09;;;;;;;18.73;1.20;;;;;;;1.42;57.98;101089.19;5061112;28;20032;-65
2023/01/10 03:54:34;;;;;;;9.23;1.13;;;;;;;1.47;58.25;101102.09;5057490;28;20133;-68
2023/01/10 03:56:59;;;;;;;6.50;0.80;;;;;;;1.37;58.48;101101.16;5061069;28;20036;-66
2023/01/10 03:59:26;;;;;;;13.95;1.88;;;;;;;1.22;59.60;101111.44;5061270;28;20031;-69
2023/01/10 04:01:53;;;;;;;10.35;1.10;;;;;;;1.04;60.03;101113.09;5057658;28;20037;-69
2023/01/10 04:04:18;;;;;;;6.75;1.83;;;;;;;1.53;58.35;101117.56;5061806;28;20051;-66
2023/01/10 04:06:44;;;;;;;8.40;0.60;;;;;;;1.24;59.27;101117.47;5065163;28;20039;-66
2023/01/10 04:09:10;;;;;;;4.85;0.88;;;;;;;1.51;58.36;101114.97;5055202;28;20040;-66
2023/01/10 04:11:35;;;;;;;7.53;0.60;;;;;;;1.56;58.04;101122.69;5064619;28;20040;-66
2023/01/10 04:14:01;;;;;;;14.38;1.17;;;;;;;1.55;58.22;101121.00;5063455;28;20051;-65
2023/01/10 04:16:26;;;;;;;7.75;0.85;;;;;;;1.51;58.84;101120.13;5062477;28;20243;-66
2023/01/10 04:18:52;;;;;;;7.47;0.98;;;;;;;1.29;60.07;101134.63;5060456;28;20048;-69
2023/01/10 04:21:20;;;;;;;3.90;1.25;;;;;;;1.48;59.52;101129.53;5062040;28;20260;-68
2023/01/10 04:23:45;;;;;;;7.90;1.27;;;;;;;1.53;59.52;101127.84;5059355;28;20253;-69
2023/01/10 04:26:11;;;;;;;5.18;0.95;;;;;;;1.90;59.52;101128.72;5061094;28;20046;-67
2023/01/10 04:28:37;;;;;;;10.98;1.63;;;;;;;1.91;59.34;101134.75;5058447;28;20052;-68
2023/01/10 04:31:03;;;;;;;10.95;1.50;;;;;;;1.72;60.18;101137.31;5059455;28;20032;-68
2023/01/10 04:33:28;;;;;;;18.88;1.98;;;;;;;1.89;60.30;101134.75;5061784;27;20637;-68
2023/01/10 04:35:54;;;;;;;9.32;1.30;;;;;;;2.32;59.20;101137.31;5057225;28;20032;-66
2023/01/10 04:38:19;;;;;;;7.45;1.38;;;;;;;2.03;59.92;101136.47;5059509;28;20095;-65
2023/01/10 04:40:52;;;;;;;14.10;1.02;;;;;;;2.17;60.41;101136.47;5066175;28;20486;-65
2023/01/10 04:43:17;;;;;;;9.65;1.00;;;;;;;2.19;59.86;101140.75;5032691;28;20515;-65
2023/01/10 04:45:43;;;;;;;11.13;1.58;;;;;;;2.39;59.13;101137.28;5059999;28;20236;-64
2023/01/10 04:48:08;;;;;;;15.80;0.90;;;;;;;2.62;59.15;101148.41;5058943;28;20056;-65
2023/01/10 04:50:34;;;;;;;8.82;0.80;;;;;;;2.80;58.41;101146.66;5064781;28;20070;-65
2023/01/10 04:52:59;;;;;;;14.05;1.80;;;;;;;2.46;59.17;101145.00;5056343;28;20101;-64
2023/01/10 04:55:25;;;;;;;7.15;1.30;;;;;;;2.48;59.52;101147.59;5072939;28;20061;-71
2023/01/10 04:57:50;;;;;;;11.30;0.85;;;;;;;2.73;58.81;101154.44;5060315;28;20138;-72
2023/01/10 05:00:16;;;;;;;7.72;1.15;;;;;;;2.59;59.48;101158.75;5061547;28;20105;-73
2023/01/10 05:02:42;;;;;;;6.28;1.00;;;;;;;2.55;60.06;101159.63;5069072;28;20757;-71
2023/01/10 05:05:11;;;;;;;13.45;1.60;;;;;;;2.34;59.74;101165.69;5057798;28;20032;-73
2023/01/10 05:07:37;;;;;;;7.10;0.82;;;;;;;2.84;58.71;101166.44;5047554;28;20052;-67
2023/01/10 05:10:04;;;;;;;9.45;1.27;;;;;;;2.81;59.03;101174.19;5062500;28;20094;-67
2023/01/10 05:12:30;;;;;;;6.82;0.80;;;;;;;2.41;59.84;101172.53;5059166;28;20047;-68
2023/01/10 05:14:55;;;;;;;6.93;0.55;;;;;;;2.62;59.58;101184.53;5059858;28;20510;-70
2023/01/10 05:17:21;;;;;;;7.45;0.80;;;;;;;2.63;59.38;101181.13;5075932;28;20056;-69
2023/01/10 05:19:48;;;;;;;19.08;1.48;;;;;;;2.71;58.72;101188.81;5064946;28;20123;-69
2023/01/10 05:22:14;;;;;;;10.05;1.48;;;;;;;2.98;58.63;101193.09;5062176;28;20078;-69
2023/01/10 05:24:39;;;;;;;3.00;0.57;;;;;;;2.75;59.00;101193.13;5065138;28;20136;-69
2023/01/10 05:27:05;;;;;;;7.40;0.82;;;;;;;2.63;59.58;101183.69;5063985;28;20024;-67
2023/01/10 05:29:31;;;;;;;9.52;1.00;;;;;;;2.83;58.70;101191.41;5078803;27;20020;-67
2023/01/10 05:31:57;;;;;;;18.55;1.27;;;;;;;2.89;58.48;101195.66;5052635;28;20037;-66
2023/01/10 05:34:25;;;;;;;10.27;1.00;;;;;;;2.44;59.50;101207.78;5060280;28;20105;-68
2023/01/10 05:36:50;;;;;;;5.00;0.57;;;;;;;2.31;60.47;101209.50;5068696;28;20508;-68
2023/01/10 05:39:15;;;;;;;8.18;1.38;;;;;;;2.82;58.71;101219.78;5061735;28;20081;-68
2023/01/10 05:41:41;;;;;;;10.07;1.40;;;;;;;2.44;60.12;101212.97;5064364;28;20097;-68
2023/01/10 05:44:09;;;;;;;9.30;1.55;;;;;;;2.53;59.66;101220.69;5060231;28;20341;-68
2023/01/10 05:46:35;;;;;;;6.80;0.95;;;;;;;2.26;60.35;101221.56;5059202;28;20440;-68
2023/01/10 05:49:00;;;;;;;12.40;1.02;;;;;;;2.88;58.58;101224.94;5062713;27;20046;-66
2023/01/10 05:51:26;;;;;;;6.93;0.60;;;;;;;2.49;59.30;101227.59;5064380;28;20058;-65
2023/01/10 05:53:51;;;;;;;14.13;1.10;;;;;;;2.55;59.22;101237.91;5070815;27;20036;-68
2023/01/10 05:56:17;;;;;;;13.52;2.05;;;;;;;2.76;58.30;101242.19;5074391;28;20124;-66
2023/01/10 05:58:43;;;;;;;10.32;1.17;;;;;;;2.99;57.91;101236.09;5064540;28;20058;-67
2023/01/10 06:01:08;;;;;;;10.30;1.50;;;;;;;2.43;58.92;101237.06;5061773;28;20043;-67
2023/01/10 06:03:34;;;;;;;2.65;0.43;;;;;;;2.58;58.75;101234.47;5065266;27;20093;-67
2023/01/10 06:06:02;;;;;;;10.82;0.70;;;;;;;2.25;59.57;101243.94;5065617;28;20118;-67
2023/01/10 06:08:30;;;;;;;10.77;1.13;;;;;;;2.16;60.11;101249.06;5062269;28;20345;-66
2023/01/10 06:10:58;;;;;;;9.40;0.90;;;;;;;2.04;60.33;101247.34;5061540;28;20058;-66
2023/01/10 06:13:23;;;;;;;4.30;1.30;;;;;;;2.46;59.26;101255.09;5059461;28;20044;-67
2023/01/10 06:15:50;;;;;;;12.07;1.45;;;;;;;2.59;59.31;101258.53;5071334;28;20611;-67
2023/01/10 06:18:15;;;;;;;15.65;0.60;;;;;;;2.10;60.77;101267.13;5057180;28;20126;-72
2023/01/10 06:20:44;;;;;;;17.50;1.90;;;;;;;2.37;59.36;101262.84;5062651;28;20101;-72
2023/01/10 06:23:10;;;;;;;10.20;1.20;;;;;;;2.31;59.80;101274.88;5051944;28;20139;-66
2023/01/10 06:25:39;;;;;;;8.45;0.82;;;;;;;2.12;60.21;101273.13;5061008;28;20226;-65
2023/01/10 06:28:05;;;;;;;7.72;0.95;;;;;;;2.35;59.75;101280.88;5053065;28;20489;-66
2023/01/10 06:30:30;;;;;;;5.25;1.48;;;;;;;2.32;59.62;101284.34;5060975;28;20170;-68
2023/01/10 06:33:14;;;;;;;5.68;0.70;;;;;;;2.48;59.57;101286.94;5058151;28;20040;-69
2023/01/10 06:35:39;;;;;;;8.95;1.23;;;;;;;2.37;59.31;101284.34;5067239;28;20491;-66
2023/01/10 06:38:05;;;;;;;10.68;1.45;;;;;;;2.25;59.67;101290.34;5062337;28;20055;-66
2023/01/10 06:40:31;;;;;;;7.55;0.85;;;;;;;2.24;59.68;101286.06;5061392;28;20567;-66
2023/01/10 06:42:57;;;;;;;7.53;1.58;;;;;;;2.13;59.59;101285.16;5061096;28;20055;-67
2023/01/10 06:45:25;;;;;;;5.28;0.98;;;;;;;2.27;59.68;101288.63;5062805;28;20561;-65
2023/01/10 06:47:50;;;;;;;9.30;1.45;;;;;;;2.27;59.76;101291.22;5065354;28;20054;-64
2023/01/10 06:50:17;;;;;;;13.25;1.25;;;;;;;2.30;59.19;101288.63;5065020;28;20081;-66
2023/01/10 06:52:42;;;;;;;9.77;1.48;;;;;;;2.44;58.79;101296.38;5058690;28;20056;-65
2023/01/10 06:55:08;;;;;;;11.38;0.90;;;;;;;2.25;59.51;101295.50;5062014;28;20558;-64
2023/01/10 06:57:37;;;;;;;14.63;2.17;;;;;;;2.42;58.89;101298.13;5057896;28;20048;-65
2023/01/10 07:00:08;;;;;;;9.02;1.27;;;;;;;1.90;60.49;101313.47;5050600;28;20491;-68
2023/01/10 07:02:34;;;;;;;7.20;1.02;;;;;;;2.50;59.36;101305.84;5054792;28;20047;-67
2023/01/10 07:04:59;;;;;;;16.13;1.73;;;;;;;2.31;59.56;101303.25;5059673;28;20296;-66
2023/01/10 07:07:25;;;;;;;24.40;2.17;;;;;;;2.43;59.42;101304.13;5058739;28;20047;-66
2023/01/10 07:09:50;;;;;;;11.88;2.03;;;;;;;1.67;61.77;101306.53;5058256;28;20087;-67
2023/01/10 07:12:16;;;;;;;9.88;2.03;;;;;;;2.45;59.39;101305.00;5048161;28;20397;-70
2023/01/10 07:14:41;;;;;;;12.52;2.53;;;;;;;2.61;58.45;101309.28;5063295;28;20023;-71
2023/01/10 07:17:07;;;;;;;13.52;1.38;;;;;;;2.13;60.41;101316.09;5061790;28;20075;-70
2023/01/10 07:19:34;;;;;;;6.72;1.33;;;;;;;2.29;60.25;101320.47;5065914;28;20461;-73
2023/01/10 07:22:02;;;;;;;13.18;1.92;;;;;;;2.60;59.56;101330.81;5040897;28;20032;-72
2023/01/10 07:24:35;;;;;;;19.75;2.33;;;;;;;2.20;60.81;101343.66;5064255;28;20389;-73
2023/01/10 07:27:03;;;;;;;12.80;1.65;;;;;;;1.96;61.07;101356.47;5061317;27;20024;-66
2023/01/10 07:29:29;;;;;;;5.45;0.77;;;;;;;2.81;58.87;101365.22;5064661;28;20028;-66
2023/01/10 07:31:54;;;;;;;15.75;1.75;;;;;;;2.24;60.46;101358.28;5056902;28;20093;-66
2023/01/10 07:34:20;;;;;;;11.73;0.90;;;;;;;2.12;60.92;101338.47;5063060;28;20114;-66
2023/01/10 07:36:46;;;;;;;8.20;1.63;;;;;;;2.70;59.61;101322.19;5058883;28;20050;-70
2023/01/10 07:39:11;;;;;;;7.05;1.17;;;;;;;2.71;59.13;101316.19;5063412;28;20135;-67
2023/01/10 07:41:37;;;;;;;8.40;1.83;;;;;;;2.48;59.53;101326.47;5060447;28;20215;-69
2023/01/10 07:44:03;;;;;;;12.90;2.50;;;;;;;2.20;60.32;101327.28;5057635;28;20416;-65
2023/01/10 07:46:29;;;;;;;4.13;1.20;;;;;;;2.71;58.89;101326.50;5062514;28;20031;-65
2023/01/10 07:48:54;;;;;;;11.07;1.35;;;;;;;2.30;60.22;101340.22;5068294;28;20418;-66
2023/01/10 07:51:20;;;;;;;10.98;1.73;;;;;;;2.53;59.24;101339.38;5063550;28;20040;-71
2023/01/10 07:53:46;;;;;;;5.90;1.90;;;;;;;2.41;59.80;101341.97;5060622;28;20391;-71
2023/01/10 07:56:14;;;;;;;8.85;1.58;;;;;;;2.66;59.26;101340.25;5060124;28;20028;-66
2023/01/10 07:58:39;;;;;;;12.57;2.45;;;;;;;2.38;60.40;101340.25;5059939;28;20044;-66
2023/01/10 08:01:05;;;;;;;9.60;1.92;;;;;;;2.20;61.07;101351.41;5074761;28;20040;-67
2023/01/10 08:03:32;;;;;;;10.32;1.48;;;;;;;2.21;60.88;101363.41;5070973;28;20553;-67
2023/01/10 08:06:06;;;;;;;7.90;1.88;;;;;;;2.25;60.93;101367.72;5063195;28;20040;-68
2023/01/10 08:08:33;;;;;;;8.48;3.03;;;;;;;2.39;60.61;101384.97;5057712;28;20125;-68
2023/01/10 08:10:59;;;;;;;15.18;2.20;;;;;;;2.51;60.29;101388.44;5059064;28;20036;-68
2023/01/10 08:13:25;;;;;;;12.00;2.10;;;;;;;2.48;60.55;101395.28;5059370;28;20492;-68
2023/01/10 08:15:51;;;;;;;13.30;2.55;;;;;;;1.95;62.13;101399.41;5057668;28;20040;-68
2023/01/10 08:18:18;;;;;;;14.60;1.83;;;;;;;2.61;60.54;101402.19;5060291;27;20687;-68
2023/01/10 08:20:46;;;;;;;14.00;1.92;;;;;;;2.65;60.51;101409.09;5060252;28;20032;-68
2023/01/10 08:23:13;;;;;;;12.30;2.38;;;;;;;2.20;61.87;101414.97;5059266;28;20552;-67
2023/01/10 08:25:38;;;;;;;8.82;2.45;;;;;;;2.53;60.78;101409.94;5060336;28;20044;-67
2023/01/10 08:28:03;;;;;;;11.20;2.70;;;;;;;2.13;62.44;101416.69;5063238;28;20054;-68
2023/01/10 08:30:29;;;;;;;12.80;2.42;;;;;;;2.53;61.63;101414.22;5061123;28;20027;-68
2023/01/10 08:32:54;;;;;;;20.65;3.70;;;;;;;2.71;60.89;101419.44;5053510;28;20716;-67
2023/01/10 08:35:20;;;;;;;20.73;2.30;;;;;;;3.26;59.67;101409.97;5057612;28;23011;-68
2023/01/10 08:37:45;;;;;;;12.93;2.17;;;;;;;3.09;59.35;101418.59;5057841;28;20392;-67
2023/01/10 08:40:11;;;;;;;13.18;1.77;;;;;;;2.75;60.17;101418.56;5059641;28;20028;-67
2023/01/10 08:42:36;;;;;;;8.52;2.75;;;;;;;2.73;60.60;101422.00;5081153;28;20317;-67
2023/01/10 08:45:03;;;;;;;10.93;2.35;;;;;;;2.86;60.40;101420.31;5071350;28;20287;-67
2023/01/10 08:47:28;;;;;;;9.75;2.55;;;;;;;3.01;60.25;101420.31;5061560;28;20318;-68
2023/01/10 08:49:54;;;;;;;8.82;1.45;;;;;;;2.98;59.64;101415.16;5059562;28;20447;-68
2023/01/10 08:52:19;;;;;;;10.68;1.90;;;;;;;2.72;60.79;101426.31;5062027;28;20873;-68
2023/01/10 08:54:45;;;;;;;16.42;2.17;;;;;;;2.86;60.41;101422.88;5060459;28;20036;-67
2023/01/10 08:57:10;;;;;;;11.98;1.73;;;;;;;2.88;60.14;101414.28;5067330;28;20048;-67
2023/01/10 08:59:36;;;;;;;11.63;1.58;;;;;;;2.80;60.84;101418.59;5059780;28;20032;-66
2023/01/10 09:02:03;;;;;;;9.90;2.03;;;;;;;2.43;60.88;101422.81;5064060;27;20040;-65
2023/01/10 09:04:29;;;;;;;9.35;1.73;;;;;;;3.29;59.37;101413.47;5058083;28;20317;-67
2023/01/10 09:06:55;;;;;;;12.20;1.90;;;;;;;3.19;58.93;101425.47;5058905;28;20016;-67
2023/01/10 09:09:20;;;;;;;8.98;1.45;;;;;;;3.32;59.57;101422.94;5062170;28;20556;-67
2023/01/10 09:11:46;;;;;;;13.75;2.15;;;;;;;3.78;57.77;101422.81;5078106;27;20034;-68
2023/01/10 09:14:11;;;;;;;6.72;1.65;;;;;;;4.63;56.47;101421.59;5058233;28;20040;-68
2023/01/10 09:16:37;;;;;;;12.57;1.73;;;;;;;3.47;58.09;101422.91;5060200;28;20043;-65
2023/01/10 09:19:02;;;;;;;11.05;1.20;;;;;;;4.45;56.15;101432.03;5059423;28;20063;-65
2023/01/10 09:21:28;;;;;;;4.68;1.27;;;;;;;3.76;56.85;101429.72;5063851;28;20047;-66
2023/01/10 09:23:54;;;;;;;12.15;1.90;;;;;;;3.97;58.05;101429.66;5059401;28;20699;-67
2023/01/10 09:26:19;;;;;;;7.43;1.63;;;;;;;4.33;57.04;101442.47;5058719;28;20645;-66
2023/01/10 09:28:45;;;;;;;15.32;1.92;;;;;;;4.04;57.33;101450.34;5060118;28;20032;-68
2023/01/10 09:31:10;;;;;;;17.63;2.72;;;;;;;3.90;57.51;101448.66;5061444;28;20678;-70
2023/01/10 09:33:37;;;;;;;6.70;1.65;;;;;;;3.15;59.73;101452.16;5056052;28;20077;-67
2023/01/10 09:36:03;;;;;;;9.60;2.15;;;;;;;3.09;59.82;101454.75;5059744;28;20740;-68
2023/01/10 09:38:28;;;;;;;11.63;1.77;;;;;;;3.62;58.93;101462.50;5061188;28;20552;-66
2023/01/10 09:41:15;;;;;;;11.93;2.00;;;;;;;3.59;59.27;101456.47;5074862;28;20095;-70
2023/01/10 09:43:59;;;;;;;13.50;3.47;;;;;;;4.08;58.01;101462.41;5060060;28;20050;-70
2023/01/10 09:46:31;;;;;;;7.90;2.22;;;;;;;4.04;58.28;101471.88;5060402;28;20039;-67
2023/01/10 09:49:24;;;;;;;8.48;2.92;;;;;;;4.29;57.81;101476.97;5058671;28;20121;-68
2023/01/10 09:51:51;;;;;;;14.60;3.10;;;;;;;4.42;57.16;101476.91;5058830;28;20067;-68
2023/01/10 09:54:40;;;;;;;13.88;2.42;;;;;;;4.20;57.60;101472.69;5058268;28;20032;-68
2023/01/10 09:57:18;;;;;;;25.48;4.75;;;;;;;3.92;58.68;101477.97;5061598;28;20589;-66
2023/01/10 09:59:49;;;;;;;16.67;2.47;;;;;;;3.57;59.88;101481.47;5062063;28;20028;-69
2023/01/10 10:02:21;;;;;;;11.90;2.28;;;;;;;3.80;59.06;101485.72;5058589;28;20449;-68
2023/01/10 10:05:07;;;;;;;14.20;2.50;;;;;;;3.71;59.51;101485.75;5055546;28;20288;-68
2023/01/10 10:07:33;;;;;;;16.60;3.30;;;;;;;4.02;58.66;101490.00;5073535;27;20451;-68
2023/01/10 10:09:58;;;;;;;27.10;4.50;;;;;;;3.97;59.06;101490.88;5075658;27;20092;-68
2023/01/10 10:12:52;;;;;;;15.88;3.80;;;;;;;4.25;57.85;101485.59;5059154;28;20756;-67
2023/01/10 10:15:38;;;;;;;17.42;4.18;;;;;;;4.35;57.98;101482.97;5059559;28;20039;-68
2023/01/10 10:18:25;;;;;;;15.43;4.60;;;;;;;3.82;59.21;101488.34;5063497;28;20895;-67
2023/01/10 10:21:00;;;;;;;16.67;5.63;;;;;;;3.82;59.50;101491.78;5062209;28;20043;-68
2023/01/10 10:23:47;;;;;;;17.90;3.90;;;;;;;4.12;59.05;101489.97;5081833;27;20057;-68
2023/01/10 10:26:34;;;;;;;19.10;3.50;;;;;;;3.91;59.66;101494.34;5081887;28;20107;-68
2023/01/10 10:29:08;;;;;;;13.75;3.25;;;;;;;3.75;59.95;101497.81;5074999;28;20055;-66
2023/01/10 10:32:00;;;;;;;17.42;3.35;;;;;;;3.86;59.46;101495.22;5069124;28;20032;-68
2023/01/10 10:34:36;;;;;;;26.92;3.38;;;;;;;3.75;59.45;101488.34;5074682;27;20040;-67
2023/01/10 10:37:22;;;;;;;16.80;3.60;;;;;;;4.68;57.33;101488.88;5063484;28;20496;-65
2023/01/10 10:39:56;;;;;;;8.60;3.30;;;;;;;4.86;56.57;101489.63;5062547;28;20029;-67
2023/01/10 10:42:28;;;;;;;20.13;3.47;;;;;;;4.77;56.79;101491.41;5062917;28;20339;-66
2023/01/10 10:45:04;;;;;;;15.98;3.88;;;;;;;4.54;57.93;101486.38;5061659;28;20036;-66
2023/01/10 10:47:34;;;;;;;11.95;2.70;;;;;;;4.32;58.40;101483.00;5064514;28;20798;-68
2023/01/10 10:50:29;;;;;;;10.25;2.10;;;;;;;4.41;57.88;101487.28;5062542;28;20047;-68
2023/01/10 10:52:55;;;;;;;14.57;3.75;;;;;;;4.38;57.50;101489.88;5062119;28;20157;-68
2023/01/10 10:55:30;;;;;;;19.60;3.53;;;;;;;4.70;56.86;101484.56;5060729;28;20036;-67
2023/01/10 10:57:55;;;;;;;7.15;2.78;;;;;;;4.41;57.15;101488.13;5060643;28;20048;-66
2023/01/10 11:00:22;;;;;;;8.45;1.85;;;;;;;4.63;56.74;101486.31;5063709;28;20092;-70
2023/01/10 11:02:53;;;;;;;19.15;2.50;;;;;;;4.75;56.13;101482.78;5060945;28;20075;-70
2023/01/10 11:05:46;;;;;;;8.55;1.65;;;;;;;4.31;56.82;101485.59;5059841;28;20613;-67
2023/01/10 11:08:12;;;;;;;;;;;;;;;4.70;55.70;101468.13;5051749;28;20867;-71
2023/01/10 11:10:41;;;;;;;11.23;1.45;;;;;;;4.54;55.36;101468.25;5062452;28;20462;-70
2023/01/10 11:13:39;;;;;;;10.48;1.88;;;;;;;5.19;54.14;101466.09;5058557;27;20561;-64
2023/01/10 11:16:06;;;;;;;14.88;2.35;;;;;;;4.96;54.44;101455.03;5058917;28;20084;-67
2023/01/10 11:18:32;;;;;;;7.78;1.35;;;;;;;4.88;54.39;101447.34;5061403;28;20051;-67
2023/01/10 11:21:00;;;;;;;15.20;2.05;;;;;;;4.43;55.34;101460.53;5064872;28;20033;-68
2023/01/10 11:23:57;;;;;;;17.98;2.08;;;;;;;5.48;53.16;101449.44;5061810;28;20047;-66
2023/01/10 11:26:22;;;;;;;6.90;1.08;;;;;;;5.84;52.33;101443.00;5065411;28;20032;-68
2023/01/10 11:28:49;;;;;;;18.15;1.50;;;;;;;5.16;53.40;101447.97;5063339;28;20416;-68
2023/01/10 11:31:25;;;;;;;10.20;1.63;;;;;;;5.08;53.95;101446.31;5081610;27;20036;-68
2023/01/10 11:33:51;;;;;;;12.88;2.08;;;;;;;5.38;52.82;101432.25;5062283;28;20521;-68
2023/01/10 11:36:16;;;;;;;11.57;1.10;;;;;;;4.69;54.47;101435.34;5064522;28;20059;-68
2023/01/10 11:38:42;;;;;;;13.27;1.67;;;;;;;4.73;54.37;101447.41;5066292;28;20084;-68
2023/01/10 11:41:30;;;;;;;12.10;1.27;;;;;;;4.52;55.22;101450.97;5065311;28;20043;-68
2023/01/10 11:44:16;;;;;;;11.32;1.73;;;;;;;4.86;53.54;101443.88;5061851;28;20052;-68
2023/01/10 11:46:44;;;;;;;10.15;1.85;;;;;;;4.43;55.07;101450.16;5065357;28;20213;-68
2023/01/10 11:49:18;;;;;;;5.60;1.25;;;;;;;4.44;54.91;101451.03;5063113;28;20043;-69
2023/01/10 11:51:48;;;;;;;7.13;1.65;;;;;;;4.72;54.30;101456.91;5068184;28;20122;-69
2023/01/10 11:54:28;;;;;;;9.10;1.92;;;;;;;4.64;54.52;101469.03;5063650;28;20698;-68